Terminal Aerodrome Forecast
Issued by NWS

Home | Current Version | Previous Version | Text Only | Print | Product List | Glossary On
Versions: 1 2 3 4 5 6 7 8 9 10 11 12 13 14 15 16 17 18 19 20 21 22 23 24 25 26 27 28 29
000
FTUS46 KSGX 301030 AAB
TAFSAN
TAF AMD
KSAN 301030Z 3011/0112 30005KT P6SM SCT010 SCT150
     FM301900 29009KT P6SM SCT150
     FM010300 VRB04KT P6SM FEW009 BKN120=

USA.gov is the U.S. government's official web portal to all federal, state and local government web resources and services.